Terminal Aerodrome Forecast
Issued by NWS

Home | Current Version | Previous Version | Text Only | Print | Product List | Glossary On
Versions: 1 2 3 4 5 6 7 8 9 10 11 12 13 14 15 16 17 18 19 20 21
000
FTUS44 KLZK 111100 CCA
TAFADF
TAF COR
KADF 111156Z 1112/1212 VRB03KT P6SM BKN120
      TEMPO 1112/1114 5SM BR
     FM111500 17005KT P6SM SCT040 SCT100
     FM111800 20006KT P6SM VCTS SCT050CB
     FM120100 VRB03KT P6SM SCT250=

USA.gov is the U.S. government's official web portal to all federal, state and local government web resources and services.